Time;durP1;ratioP1;P1;durP2;ratioP2;P2;SDS_P1;SDS_P2;PMS_P1;PMS_P2;Temp;Humidity;BMP_temperature;BMP_pressure;BME280_temperature;BME280_humidity;BME280_pressure;Samples;Min_cycle;Max_cycle;Signal;HPM_P1;HPM_P2
2022/05/12 00:00:49;;;;;;;11.32;2.78;;;;;;;;;;5053139;28;19935;-65
2022/05/12 00:03:17;;;;;;;12.80;2.78;;;;;;;;;;5036243;28;20430;-66
2022/05/12 00:05:43;;;;;;;13.68;3.10;;;;;;;;;;5054007;28;20106;-66
2022/05/12 00:08:09;;;;;;;;;;;;;;;;;;5053967;28;20475;-66
2022/05/12 00:10:35;;;;;;;8.27;2.80;;;;;;;;;;5053067;28;19964;-65
2022/05/12 00:13:02;;;;;;;11.38;2.70;;;;;;;;;;5054293;28;20037;-66
2022/05/12 00:15:31;;;;;;;8.80;2.60;;;;;;;;;;5053999;28;20043;-65
2022/05/12 00:17:57;;;;;;;9.10;2.42;;;;;;;;;;5054059;28;20048;-66
2022/05/12 00:20:24;;;;;;;8.45;2.05;;;;;;;;;;5053617;28;20531;-66
2022/05/12 00:22:50;;;;;;;9.05;2.92;;;;;;;;;;5054068;28;20033;-66
2022/05/12 00:25:16;;;;;;;;;;;;;;;;;;5054270;28;20062;-64
2022/05/12 00:27:42;;;;;;;11.15;2.08;;;;;;;;;;5053932;28;19917;-64
2022/05/12 00:30:09;;;;;;;6.88;2.10;;;;;;;;;;5053484;28;20392;-65
2022/05/12 00:32:39;;;;;;;8.40;2.15;;;;;;;;;;5053856;28;20073;-64
2022/05/12 00:35:06;;;;;;;7.78;1.90;;;;;;;;;;5053869;28;20072;-64
2022/05/12 00:37:32;;;;;;;10.95;2.13;;;;;;;;;;5053768;28;20041;-65
2022/05/12 00:39:58;;;;;;;7.43;2.38;;;;;;;;;;5053492;28;20484;-65
2022/05/12 00:42:24;;;;;;;13.02;2.60;;;;;;;;;;5053557;28;20110;-65
2022/05/12 00:44:50;;;;;;;7.53;2.20;;;;;;;;;;5035648;28;20052;-62
2022/05/12 00:47:16;;;;;;;9.68;2.10;;;;;;;;;;5053641;28;20179;-61
2022/05/12 00:49:43;;;;;;;8.77;2.15;;;;;;;;;;5053368;28;20041;-64
2022/05/12 00:52:12;;;;;;;8.98;2.40;;;;;;;;;;5053324;28;20492;-62
2022/05/12 00:54:58;;;;;;;8.95;2.80;;;;;;;;;;5053603;28;20068;-64
2022/05/12 00:57:29;;;;;;;9.40;2.30;;;;;;;;;;5053409;28;20412;-63
2022/05/12 00:59:55;;;;;;;13.07;2.70;;;;;;;;;;5053458;28;20431;-63
2022/05/12 01:02:21;;;;;;;10.15;2.55;;;;;;;;;;5053073;28;20124;-63
2022/05/12 01:04:47;;;;;;;;;;;;;;;;;;5054335;28;20045;-63
2022/05/12 01:07:14;;;;;;;9.65;2.58;;;;;;;;;;5053016;28;19921;-62
2022/05/12 01:09:40;;;;;;;;;;;;;;;;;;5053529;28;20515;-63
2022/05/12 01:12:06;;;;;;;9.75;3.10;;;;;;;;;;5053383;28;19917;-63
2022/05/12 01:14:33;;;;;;;8.13;2.42;;;;;;;;;;5053071;28;20045;-63
2022/05/12 01:17:00;;;;;;;11.50;2.58;;;;;;;;;;5053344;28;20036;-64
2022/05/12 01:19:28;;;;;;;9.25;2.25;;;;;;;;;;5035497;28;20388;-64
2022/05/12 01:21:55;;;;;;;9.32;2.85;;;;;;;;;;5038996;28;20053;-64
2022/05/12 01:24:22;;;;;;;9.63;2.55;;;;;;;;;;5057245;28;20037;-63
2022/05/12 01:26:48;;;;;;;9.15;2.50;;;;;;;;;;5057032;28;20400;-63
2022/05/12 01:29:14;;;;;;;10.43;2.80;;;;;;;;;;5057195;28;20049;-62
2022/05/12 01:31:40;;;;;;;10.23;2.60;;;;;;;;;;5022786;28;20041;-63
2022/05/12 01:34:07;;;;;;;10.18;2.72;;;;;;;;;;5057060;28;20059;-62
2022/05/12 01:36:33;;;;;;;8.52;2.67;;;;;;;;;;5056718;28;20404;-63
2022/05/12 01:39:00;;;;;;;9.25;2.50;;;;;;;;;;5057132;28;20044;-63
2022/05/12 01:41:26;;;;;;;8.80;2.55;;;;;;;;;;5056723;28;20045;-63
2022/05/12 01:43:53;;;;;;;10.90;2.53;;;;;;;;;;5056548;28;20041;-63
2022/05/12 01:46:19;;;;;;;;;;;;;;;;;;5057813;28;20055;-63
2022/05/12 01:48:45;;;;;;;9.77;2.78;;;;;;;;;;5056930;28;20015;-63
2022/05/12 01:51:12;;;;;;;6.70;2.30;;;;;;;;;;5056928;28;20119;-63
2022/05/12 01:53:38;;;;;;;10.15;2.53;;;;;;;;;;5056681;28;20043;-63
2022/05/12 01:56:05;;;;;;;8.77;2.78;;;;;;;;;;5056477;28;20099;-63
2022/05/12 01:58:32;;;;;;;12.43;2.78;;;;;;;;;;5056715;28;20040;-63
2022/05/12 02:00:58;;;;;;;;;;;;;;;;;;5057118;28;20045;-63
2022/05/12 02:03:24;;;;;;;8.27;2.70;;;;;;;;;;5056486;28;20364;-62
2022/05/12 02:05:50;;;;;;;10.23;3.03;;;;;;;;;;5038765;28;20390;-63
2022/05/12 02:08:17;;;;;;;11.57;3.10;;;;;;;;;;5056418;28;20052;-63
2022/05/12 02:10:45;;;;;;;10.52;3.03;;;;;;;;;;5056501;28;20048;-63
2022/05/12 02:13:12;;;;;;;8.93;3.13;;;;;;;;;;5056513;28;20155;-63
2022/05/12 02:15:38;;;;;;;;;;;;;;;;;;5056650;28;20045;-63
2022/05/12 02:18:05;;;;;;;10.60;2.95;;;;;;;;;;5056422;28;19916;-63
2022/05/12 02:20:31;;;;;;;12.30;3.67;;;;;;;;;;5038437;28;20049;-63
2022/05/12 02:22:57;;;;;;;11.75;3.45;;;;;;;;;;5056214;28;20120;-63
2022/05/12 02:25:23;;;;;;;11.27;3.28;;;;;;;;;;5055907;28;20068;-62
2022/05/12 02:27:50;;;;;;;11.20;3.53;;;;;;;;;;5056175;28;20037;-64
2022/05/12 02:30:22;;;;;;;12.48;3.47;;;;;;;;;;5056266;28;20404;-64
2022/05/12 02:32:48;;;;;;;12.63;3.30;;;;;;;;;;5055926;28;20033;-63
2022/05/12 02:35:15;;;;;;;14.05;3.65;;;;;;;;;;5056042;28;20067;-63
2022/05/12 02:37:41;;;;;;;13.68;3.60;;;;;;;;;;5021530;28;20099;-62
2022/05/12 02:40:07;;;;;;;15.13;3.90;;;;;;;;;;5055980;28;20076;-63
2022/05/12 02:42:34;;;;;;;14.63;4.15;;;;;;;;;;5055811;28;20044;-63
2022/05/12 02:45:00;;;;;;;13.45;3.55;;;;;;;;;;5055990;28;20037;-64
2022/05/12 02:47:26;;;;;;;13.73;3.65;;;;;;;;;;5037548;28;20040;-63
2022/05/12 02:49:52;;;;;;;14.30;4.03;;;;;;;;;;5055797;28;20037;-64
2022/05/12 02:52:18;;;;;;;13.80;4.60;;;;;;;;;;5037705;28;20043;-65
2022/05/12 02:54:44;;;;;;;13.32;4.30;;;;;;;;;;5056472;28;20435;-63
2022/05/12 02:57:10;;;;;;;13.85;4.43;;;;;;;;;;5021460;28;20129;-64
2022/05/12 02:59:37;;;;;;;14.85;4.30;;;;;;;;;;5037621;28;20572;-65
2022/05/12 03:02:03;;;;;;;16.45;3.92;;;;;;;;;;5021201;28;20079;-64
2022/05/12 03:04:29;;;;;;;13.93;4.53;;;;;;;;;;5056044;28;20044;-64
2022/05/12 03:06:56;;;;;;;14.73;4.57;;;;;;;;;;5055721;28;20056;-65
2022/05/12 03:09:22;;;;;;;;;;;;;;;;;;5055767;28;20045;-64
2022/05/12 03:11:48;;;;;;;18.52;5.57;;;;;;;;;;5055347;28;20259;-64
2022/05/12 03:14:14;;;;;;;;;;;;;;;;;;5055829;28;20045;-64
2022/05/12 03:16:40;;;;;;;17.13;5.47;;;;;;;;;;5055267;28;19999;-63
2022/05/12 03:19:06;;;;;;;14.05;4.95;;;;;;;;;;5054924;28;20546;-65
2022/05/12 03:21:32;;;;;;;;;;;;;;;;;;5055472;28;20045;-63
2022/05/12 03:23:58;;;;;;;17.75;5.60;;;;;;;;;;5055244;28;19917;-67
2022/05/12 03:26:24;;;;;;;16.77;5.75;;;;;;;;;;5055071;28;20033;-66
2022/05/12 03:28:51;;;;;;;15.48;5.82;;;;;;;;;;5054571;28;20120;-65
2022/05/12 03:31:18;;;;;;;16.77;5.28;;;;;;;;;;5036469;28;20388;-65
2022/05/12 03:33:46;;;;;;;21.13;5.88;;;;;;;;;;5054136;28;20037;-64
2022/05/12 03:36:12;;;;;;;18.17;5.82;;;;;;;;;;5054149;28;20053;-65
2022/05/12 03:38:38;;;;;;;14.82;5.80;;;;;;;;;;5054325;28;20124;-64
2022/05/12 03:41:05;;;;;;;21.48;6.63;;;;;;;;;;5053523;28;20068;-64
2022/05/12 03:46:16;;;;;;;16.05;6.35;;;;;;;;;;5053759;28;20072;-64
2022/05/12 03:48:42;;;;;;;22.25;6.70;;;;;;;;;;5053330;28;20499;-64
2022/05/12 03:51:09;;;;;;;22.52;6.75;;;;;;;;;;5054106;28;20087;-65
2022/05/12 03:53:35;;;;;;;;;;;;;;;;;;5053471;28;20106;-63
2022/05/12 03:56:01;;;;;;;20.92;6.53;;;;;;;;;;5053115;28;20340;-64
2022/05/12 03:58:27;;;;;;;19.25;6.43;;;;;;;;;;5053110;28;20037;-64
2022/05/12 04:00:54;;;;;;;15.52;6.22;;;;;;;;;;5035491;28;20163;-65
2022/05/12 04:03:20;;;;;;;18.40;6.60;;;;;;;;;;5035358;28;20090;-65
2022/05/12 04:05:47;;;;;;;15.77;6.15;;;;;;;;;;5053586;28;20098;-65
2022/05/12 04:08:13;;;;;;;21.42;7.28;;;;;;;;;;5034952;28;20504;-65
2022/05/12 04:10:39;;;;;;;18.05;6.18;;;;;;;;;;5053004;28;20349;-64
2022/05/12 04:13:05;;;;;;;17.88;6.93;;;;;;;;;;5053329;28;20044;-63
2022/05/12 04:15:31;;;;;;;17.50;6.22;;;;;;;;;;5052872;28;20044;-63
2022/05/12 04:17:58;;;;;;;16.90;6.60;;;;;;;;;;5052777;28;20051;-63
2022/05/12 04:20:25;;;;;;;19.63;6.80;;;;;;;;;;5034774;28;20048;-63
2022/05/12 04:22:51;;;;;;;16.20;6.28;;;;;;;;;;5052277;28;20049;-62
2022/05/12 04:25:17;;;;;;;18.42;6.43;;;;;;;;;;5052872;28;20108;-63
2022/05/12 04:27:43;;;;;;;;;;;;;;;;;;5053815;28;20048;-63
2022/05/12 04:30:11;;;;;;;19.80;7.00;;;;;;;;;;5053445;28;20264;-64
2022/05/12 04:32:38;;;;;;;20.20;7.25;;;;;;;;;;5053214;28;20480;-63
2022/05/12 04:35:11;;;;;;;22.25;7.35;;;;;;;;;;5053261;28;20369;-63
2022/05/12 04:37:38;;;;;;;19.02;6.85;;;;;;;;;;5053172;28;20036;-63
2022/05/12 04:40:06;;;;;;;19.15;6.88;;;;;;;;;;5053244;28;20138;-63
2022/05/12 04:42:32;;;;;;;18.02;7.32;;;;;;;;;;5052697;28;20496;-63
2022/05/12 04:44:58;;;;;;;19.77;7.88;;;;;;;;;;5052858;28;20051;-63
2022/05/12 04:47:24;;;;;;;21.30;7.68;;;;;;;;;;5052803;28;20037;-63
2022/05/12 04:49:50;;;;;;;20.33;7.43;;;;;;;;;;5034378;28;20370;-63
2022/05/12 04:52:16;;;;;;;21.48;8.57;;;;;;;;;;5052575;28;20083;-64
2022/05/12 04:54:43;;;;;;;21.23;7.07;;;;;;;;;;5033798;28;20048;-63
2022/05/12 04:57:09;;;;;;;18.65;7.38;;;;;;;;;;5034588;28;20373;-63
2022/05/12 04:59:35;;;;;;;17.83;7.07;;;;;;;;;;5052492;28;20041;-63
2022/05/12 05:02:01;;;;;;;21.95;7.93;;;;;;;;;;5052952;28;20059;-62
2022/05/12 05:04:27;;;;;;;16.73;7.60;;;;;;;;;;5052757;28;20041;-63
2022/05/12 05:06:53;;;;;;;21.38;8.10;;;;;;;;;;5052535;28;20044;-63
2022/05/12 05:09:19;;;;;;;20.08;8.20;;;;;;;;;;5052677;28;20493;-64
2022/05/12 05:11:46;;;;;;;18.90;8.00;;;;;;;;;;5052558;28;20041;-63
2022/05/12 05:14:12;;;;;;;18.13;8.05;;;;;;;;;;5034605;28;20549;-63
2022/05/12 05:16:38;;;;;;;17.35;7.70;;;;;;;;;;5052190;28;20040;-63
2022/05/12 05:19:05;;;;;;;21.88;8.40;;;;;;;;;;5052132;28;20120;-63
2022/05/12 05:21:31;;;;;;;19.83;8.02;;;;;;;;;;5034393;28;20503;-63
2022/05/12 05:23:57;;;;;;;18.60;8.43;;;;;;;;;;5052364;28;20131;-64
2022/05/12 05:26:23;;;;;;;17.85;7.97;;;;;;;;;;5034497;28;20107;-66
2022/05/12 05:28:49;;;;;;;19.80;7.93;;;;;;;;;;5052290;28;20033;-63
2022/05/12 05:31:15;;;;;;;25.95;11.85;;;;;;;;;;5052436;28;20059;-64
2022/05/12 05:33:41;;;;;;;29.13;15.35;;;;;;;;;;5018031;28;20056;-64
2022/05/12 05:36:07;;;;;;;25.95;9.52;;;;;;;;;;5052118;28;20040;-63
2022/05/12 05:38:33;;;;;;;23.73;9.55;;;;;;;;;;5034730;28;20037;-64
2022/05/12 05:40:59;;;;;;;20.75;7.47;;;;;;;;;;5033939;28;20087;-64
2022/05/12 05:43:26;;;;;;;24.05;11.23;;;;;;;;;;5052724;28;20037;-64
2022/05/12 05:45:53;;;;;;;21.15;8.55;;;;;;;;;;5051706;28;20051;-64
2022/05/12 05:48:19;;;;;;;19.35;7.63;;;;;;;;;;5033798;28;20052;-64
2022/05/12 05:53:35;;;;;;;18.02;8.10;;;;;;;;;;5034006;28;20041;-64
2022/05/12 05:56:02;;;;;;;17.33;7.15;;;;;;;;;;5052333;28;20045;-65
2022/05/12 05:58:28;;;;;;;22.15;7.07;;;;;;;;;;5033927;28;20060;-64
2022/05/12 06:00:55;;;;;;;17.52;6.47;;;;;;;;;;5051817;28;20084;-63
2022/05/12 06:03:21;;;;;;;;;;;;;;;;;;5053205;28;20037;-64
2022/05/12 06:05:47;;;;;;;20.90;6.72;;;;;;;;;;5052461;28;20036;-65
2022/05/12 06:08:14;;;;;;;25.13;6.88;;;;;;;;;;5055690;28;20061;-65
2022/05/12 06:10:41;;;;;;;19.02;6.30;;;;;;;;;;5055900;28;20033;-63
2022/05/12 06:13:08;;;;;;;16.55;5.95;;;;;;;;;;5055178;28;20045;-63
2022/05/12 06:15:35;;;;;;;17.65;6.18;;;;;;;;;;5055258;28;20040;-63
2022/05/12 06:18:05;;;;;;;18.63;6.25;;;;;;;;;;5055334;28;20044;-63
2022/05/12 06:20:31;;;;;;;19.90;5.35;;;;;;;;;;5055462;28;20052;-65
2022/05/12 06:22:58;;;;;;;21.55;6.07;;;;;;;;;;5055262;28;20037;-63
2022/05/12 06:25:24;;;;;;;20.65;5.68;;;;;;;;;;5054965;28;20041;-64
2022/05/12 06:27:51;;;;;;;15.77;5.38;;;;;;;;;;5036874;28;20044;-64
2022/05/12 06:30:18;;;;;;;14.35;4.78;;;;;;;;;;5055112;28;20090;-65
2022/05/12 06:32:45;;;;;;;17.17;4.60;;;;;;;;;;5055604;28;20059;-64
2022/05/12 06:35:12;;;;;;;20.38;5.38;;;;;;;;;;5056761;28;20384;-63
2022/05/12 06:37:38;;;;;;;23.17;5.63;;;;;;;;;;5055615;28;20507;-63
2022/05/12 06:40:04;;;;;;;;;;;;;;;;;;5055889;28;20481;-62
2022/05/12 06:42:31;;;;;;;14.75;5.10;;;;;;;;;;5054158;28;19970;-64
2022/05/12 06:44:57;;;;;;;22.48;6.32;;;;;;;;;;5055428;28;20112;-62
2022/05/12 06:47:23;;;;;;;17.73;5.10;;;;;;;;;;5055405;28;20048;-63
2022/05/12 06:49:50;;;;;;;18.40;5.03;;;;;;;;;;5055401;28;20439;-62
2022/05/12 06:52:17;;;;;;;13.15;4.40;;;;;;;;;;5055744;28;20037;-73
2022/05/12 06:54:44;;;;;;;17.17;4.40;;;;;;;;;;5055850;28;20052;-79
2022/05/12 06:57:11;;;;;;;22.23;4.82;;;;;;;;;;5037667;28;20037;-78
2022/05/12 06:59:38;;;;;;;15.20;4.18;;;;;;;;;;5037238;28;20112;-77
2022/05/12 07:02:04;;;;;;;12.70;3.97;;;;;;;;;;5055151;28;20063;-81
2022/05/12 07:04:31;;;;;;;14.00;4.15;;;;;;;;;;5055099;28;20032;-77
2022/05/12 07:06:57;;;;;;;12.32;3.92;;;;;;;;;;5036755;28;20079;-78
2022/05/12 07:09:24;;;;;;;;;;;;;;;;;;5037368;28;20041;-78
2022/05/12 07:11:51;;;;;;;15.60;3.47;;;;;;;;;;5054260;28;19966;-65
2022/05/12 07:14:17;;;;;;;14.35;3.65;;;;;;;;;;5054523;28;20457;-63
2022/05/12 07:16:47;;;;;;;16.10;3.75;;;;;;;;;;5054988;28;20052;-67
2022/05/12 07:19:15;;;;;;;15.45;3.83;;;;;;;;;;5053534;28;20037;-64
2022/05/12 07:27:14;;;;;;;15.40;4.22;;;;;;;;;;5036507;28;20045;-67
2022/05/12 07:29:40;;;;;;;;;;;;;;;;;;5036721;28;20044;-65
2022/05/12 07:32:07;;;;;;;14.93;3.38;;;;;;;;;;5054422;28;19916;-67
2022/05/12 07:34:33;;;;;;;16.80;3.97;;;;;;;;;;5054507;28;20049;-65
2022/05/12 07:37:00;;;;;;;14.68;3.85;;;;;;;;;;5054310;28;20047;-64
2022/05/12 07:39:27;;;;;;;;;;;;;;;;;;5054406;28;20063;-64
2022/05/12 07:41:53;;;;;;;16.35;4.05;;;;;;;;;;5052425;28;20026;-67
2022/05/12 07:44:20;;;;;;;;;;;;;;;;;;5035952;28;20087;-63
2022/05/12 07:46:47;;;;;;;19.92;3.65;;;;;;;;;;5052235;28;19940;-64
2022/05/12 07:49:13;;;;;;;17.40;3.78;;;;;;;;;;5035598;28;20079;-64
2022/05/12 07:51:39;;;;;;;15.32;3.60;;;;;;;;;;5053951;28;20041;-65
2022/05/12 07:54:05;;;;;;;15.27;3.65;;;;;;;;;;5053977;28;20068;-64
2022/05/12 07:56:32;;;;;;;14.20;3.20;;;;;;;;;;5052647;28;20186;-64
2022/05/12 07:58:59;;;;;;;13.82;2.72;;;;;;;;;;5053677;28;20404;-65
2022/05/12 08:01:26;;;;;;;13.75;3.90;;;;;;;;;;5053757;28;20040;-65
2022/05/12 08:03:52;;;;;;;16.30;3.30;;;;;;;;;;5054210;28;20033;-70
2022/05/12 08:06:19;;;;;;;12.52;2.55;;;;;;;;;;5035676;28;20045;-65
2022/05/12 08:08:45;;;;;;;;;;;;;;;;;;5053907;28;20057;-67
2022/05/12 08:11:11;;;;;;;15.82;3.13;;;;;;;;;;5053570;28;19917;-64
2022/05/12 08:13:38;;;;;;;19.48;3.33;;;;;;;;;;5052946;28;20088;-65
2022/05/12 08:16:04;;;;;;;14.30;2.90;;;;;;;;;;5053254;28;20076;-65
2022/05/12 08:18:32;;;;;;;11.10;3.22;;;;;;;;;;5053445;28;20056;-69
2022/05/12 08:20:58;;;;;;;12.38;3.10;;;;;;;;;;5035596;28;20124;-64
2022/05/12 08:23:25;;;;;;;13.52;3.15;;;;;;;;;;5053486;28;20079;-64
2022/05/12 08:25:51;;;;;;;17.80;3.30;;;;;;;;;;5053837;28;20033;-63
2022/05/12 08:28:19;;;;;;;16.63;3.15;;;;;;;;;;5035247;28;20546;-63
2022/05/12 08:30:46;;;;;;;13.20;3.00;;;;;;;;;;5034989;28;20040;-66
2022/05/12 08:33:13;;;;;;;11.52;2.60;;;;;;;;;;5053313;28;20048;-64
2022/05/12 08:35:40;;;;;;;11.95;3.15;;;;;;;;;;5034923;28;20056;-64
2022/05/12 08:38:06;;;;;;;10.13;2.55;;;;;;;;;;5034814;28;20079;-64
2022/05/12 08:40:52;;;;;;;14.20;2.78;;;;;;;;;;5018322;28;20040;-65
2022/05/12 08:43:33;;;;;;;13.10;2.60;;;;;;;;;;5052997;28;20029;-68
2022/05/12 08:46:03;;;;;;;10.60;2.30;;;;;;;;;;5053307;28;20047;-65
2022/05/12 08:48:29;;;;;;;10.13;2.72;;;;;;;;;;5052942;28;20143;-65
2022/05/12 08:50:56;;;;;;;11.32;2.70;;;;;;;;;;5053494;28;20044;-66
2022/05/12 08:53:22;;;;;;;;;;;;;;;;;;5053848;28;20056;-68
2022/05/12 08:55:53;;;;;;;8.18;2.35;;;;;;;;;;5053253;28;19923;-70
2022/05/12 08:58:19;;;;;;;13.07;3.33;;;;;;;;;;5053027;28;20105;-66
2022/05/12 09:00:54;;;;;;;15.88;3.88;;;;;;;;;;5052783;28;20044;-68
2022/05/12 09:03:20;;;;;;;9.85;2.33;;;;;;;;;;5052684;28;20132;-67
2022/05/12 09:05:52;;;;;;;17.52;3.38;;;;;;;;;;5052836;28;20079;-67
2022/05/12 09:08:26;;;;;;;12.82;3.03;;;;;;;;;;5053156;28;20072;-62
2022/05/12 09:11:01;;;;;;;12.13;3.28;;;;;;;;;;5052716;28;20041;-64
2022/05/12 09:13:31;;;;;;;15.65;2.90;;;;;;;;;;5034570;28;20045;-67
2022/05/12 09:16:14;;;;;;;12.00;2.72;;;;;;;;;;5052974;28;20037;-63
2022/05/12 09:18:41;;;;;;;11.43;2.67;;;;;;;;;;5053027;28;20048;-64
2022/05/12 09:21:09;;;;;;;14.23;2.47;;;;;;;;;;5053099;28;20041;-68
2022/05/12 09:23:35;;;;;;;10.40;2.88;;;;;;;;;;5052869;28;20033;-63
2022/05/12 09:26:02;;;;;;;10.45;2.50;;;;;;;;;;5052981;28;20361;-65
2022/05/12 09:28:40;;;;;;;15.15;3.08;;;;;;;;;;5052399;28;20033;-63
2022/05/12 09:31:09;;;;;;;11.38;2.60;;;;;;;;;;5052854;28;20072;-65
2022/05/12 09:39:52;;;;;;;11.48;2.30;;;;;;;;;;5256382;22;20143;-63
2022/05/12 09:42:27;;;;;;;9.15;2.17;;;;;;;;;;5055049;28;20102;-66
2022/05/12 09:45:03;;;;;;;14.07;2.63;;;;;;;;;;5056448;28;20136;-65
2022/05/12 09:47:29;;;;;;;;;;;;;;;;;;5057824;28;20399;-63
2022/05/12 09:50:16;;;;;;;11.05;2.70;;;;;;;;;;5056907;28;20019;-64
2022/05/12 09:52:43;;;;;;;11.18;3.00;;;;;;;;;;5056786;28;20052;-66
2022/05/12 09:55:15;;;;;;;13.20;2.70;;;;;;;;;;5057240;28;20084;-72
2022/05/12 09:57:47;;;;;;;12.77;2.60;;;;;;;;;;5056626;28;20147;-65
2022/05/12 10:00:33;;;;;;;11.20;2.35;;;;;;;;;;5057037;28;20088;-68
2022/05/12 10:08:45;;;;;;;10.80;2.30;;;;;;;;;;5045140;28;20140;-62
2022/05/12 10:11:13;;;;;;;11.77;2.45;;;;;;;;;;5056467;28;20467;-63
2022/05/12 10:13:46;;;;;;;10.20;2.58;;;;;;;;;;5057458;28;20053;-66
2022/05/12 10:16:12;;;;;;;10.73;2.83;;;;;;;;;;5056511;28;20049;-66
2022/05/12 10:18:49;;;;;;;9.55;2.30;;;;;;;;;;5055982;28;20076;-65
2022/05/12 10:21:20;;;;;;;9.05;2.60;;;;;;;;;;5056147;28;20562;-65
2022/05/12 10:24:04;;;;;;;10.68;2.58;;;;;;;;;;5038625;28;20475;-63
2022/05/12 10:27:00;;;;;;;8.98;2.40;;;;;;;;;;5056226;28;20087;-64
2022/05/12 10:29:44;;;;;;;9.80;2.50;;;;;;;;;;4985306;28;20084;-63
2022/05/12 10:32:22;;;;;;;11.93;2.42;;;;;;;;;;5055910;28;20049;-63
2022/05/12 10:34:58;;;;;;;11.35;2.47;;;;;;;;;;5055620;28;20608;-63
2022/05/12 10:37:41;;;;;;;10.30;2.40;;;;;;;;;;5054734;28;20049;-64
2022/05/12 10:40:23;;;;;;;10.20;2.45;;;;;;;;;;5055112;28;20057;-64
2022/05/12 10:43:01;;;;;;;8.50;2.13;;;;;;;;;;5055967;28;20060;-68
2022/05/12 10:45:33;;;;;;;8.68;2.42;;;;;;;;;;5054979;28;20067;-63
2022/05/12 10:47:59;;;;;;;9.50;2.55;;;;;;;;;;5038853;28;20045;-64
2022/05/12 10:50:29;;;;;;;11.23;2.30;;;;;;;;;;5055680;28;20179;-64
2022/05/12 10:52:55;;;;;;;11.30;2.70;;;;;;;;;;5053732;28;20128;-64
2022/05/12 10:55:21;;;;;;;12.18;2.65;;;;;;;;;;5037666;28;20576;-66
2022/05/12 10:58:06;;;;;;;7.72;2.00;;;;;;;;;;5055776;28;20053;-66
2022/05/12 11:00:42;;;;;;;16.15;2.42;;;;;;;;;;5054478;28;20378;-64
2022/05/12 11:03:34;;;;;;;12.40;3.08;;;;;;;;;;5056037;28;20053;-62
2022/05/12 11:06:03;;;;;;;8.88;2.38;;;;;;;;;;5034285;28;20385;-65
2022/05/12 11:08:35;;;;;;;9.52;2.28;;;;;;;;;;5055401;28;20127;-67
2022/05/12 11:11:02;;;;;;;13.73;3.67;;;;;;;;;;5055714;28;20041;-63
2022/05/12 11:13:40;;;;;;;14.20;2.22;;;;;;;;;;5054364;28;20055;-67
2022/05/12 11:16:12;;;;;;;8.68;2.00;;;;;;;;;;5037330;28;20059;-65
2022/05/12 11:18:53;;;;;;;13.15;2.60;;;;;;;;;;5054954;28;20136;-64
2022/05/12 11:21:25;;;;;;;8.05;2.35;;;;;;;;;;5054499;28;20053;-78
2022/05/12 11:23:58;;;;;;;9.27;1.90;;;;;;;;;;5054487;28;20052;-70
2022/05/12 11:26:24;;;;;;;13.05;2.40;;;;;;;;;;5038068;28;20044;-75
2022/05/12 11:32:02;;;;;;;8.38;2.15;;;;;;;;;;5024156;28;20088;-74
2022/05/12 11:34:29;;;;;;;9.43;2.17;;;;;;;;;;5054987;28;20060;-74
2022/05/12 11:36:55;;;;;;;12.90;2.30;;;;;;;;;;5037687;28;20095;-79
2022/05/12 11:39:27;;;;;;;9.10;2.40;;;;;;;;;;5036203;28;20463;-76
2022/05/12 11:42:14;;;;;;;8.60;1.90;;;;;;;;;;5037234;28;20076;-83
2022/05/12 11:44:45;;;;;;;13.23;2.88;;;;;;;;;;5054472;28;20079;-84
2022/05/12 11:47:23;;;;;;;7.35;1.80;;;;;;;;;;5052905;28;20051;-81
2022/05/12 11:49:52;;;;;;;9.73;2.47;;;;;;;;;;5054343;28;20088;-81
2022/05/12 11:52:30;;;;;;;10.25;2.45;;;;;;;;;;5054634;28;20088;-76
2022/05/12 11:55:00;;;;;;;9.43;2.25;;;;;;;;;;5054821;28;20084;-81
2022/05/12 11:57:29;;;;;;;11.18;2.70;;;;;;;;;;5060360;28;20048;-83
2022/05/12 11:59:57;;;;;;;12.68;2.58;;;;;;;;;;5058952;28;20080;-77
2022/05/12 12:02:29;;;;;;;9.20;2.55;;;;;;;;;;5057411;28;20037;-84
2022/05/12 12:05:00;;;;;;;11.82;2.80;;;;;;;;;;5054120;28;20045;-81
2022/05/12 12:07:32;;;;;;;9.45;2.20;;;;;;;;;;5037414;28;20473;-72
2022/05/12 12:10:06;;;;;;;12.88;2.85;;;;;;;;;;5054410;28;20093;-79
2022/05/12 12:12:45;;;;;;;9.70;2.22;;;;;;;;;;5037055;28;20037;-83
2022/05/12 12:15:28;;;;;;;11.02;2.55;;;;;;;;;;5053816;28;20494;-80
2022/05/12 12:17:54;;;;;;;12.07;3.60;;;;;;;;;;5053825;28;20056;-77
2022/05/12 12:20:30;;;;;;;8.07;2.10;;;;;;;;;;5036809;28;20087;-82
2022/05/12 12:22:57;;;;;;;10.23;2.80;;;;;;;;;;5037888;28;20052;-83
2022/05/12 12:25:33;;;;;;;9.90;2.67;;;;;;;;;;5055073;28;20056;-79
2022/05/12 12:27:59;;;;;;;7.60;2.35;;;;;;;;;;5055111;28;20132;-76
2022/05/12 12:30:31;;;;;;;8.77;2.20;;;;;;;;;;5036904;28;20053;-84
2022/05/12 12:33:14;;;;;;;14.18;2.67;;;;;;;;;;5054102;28;20080;-80
2022/05/12 12:35:56;;;;;;;9.90;2.60;;;;;;;;;;5054234;28;20076;-74
2022/05/12 12:38:40;;;;;;;10.18;3.05;;;;;;;;;;5053716;28;20135;-78
2022/05/12 12:41:07;;;;;;;8.57;1.85;;;;;;;;;;5054824;28;20148;-86
2022/05/12 12:43:37;;;;;;;8.30;2.40;;;;;;;;;;5019690;28;20041;-81
2022/05/12 12:46:20;;;;;;;8.43;2.25;;;;;;;;;;5053411;28;20110;-80
2022/05/12 12:48:51;;;;;;;7.30;2.22;;;;;;;;;;5036109;28;20057;-77
2022/05/12 12:51:30;;;;;;;8.25;2.20;;;;;;;;;;5054167;28;20041;-78
2022/05/12 12:57:02;;;;;;;8.88;2.30;;;;;;;;;;5014720;28;20053;-80
2022/05/12 12:59:28;;;;;;;12.00;2.65;;;;;;;;;;5030960;28;20128;-81
2022/05/12 13:01:54;;;;;;;;;;;;;;;;;;5008457;28;20049;-79
2022/05/12 13:04:20;;;;;;;;;;;;;;;;;;5036541;28;19921;-83
2022/05/12 13:06:46;;;;;;;;;;;;;;;;;;5052566;28;19999;-75
2022/05/12 13:09:12;;;;;;;;;;;;;;;;;;5035961;28;19931;-72
2022/05/12 13:11:39;;;;;;;;;;;;;;;;;;5053285;28;19924;-78
2022/05/12 13:14:04;;;;;;;;;;;;;;;;;;5053236;28;19924;-74
2022/05/12 13:16:30;;;;;;;;;;;;;;;;;;5051626;28;19927;-78
2022/05/12 13:18:56;;;;;;;;;;;;;;;;;;5052200;28;19928;-79
2022/05/12 13:21:23;;;;;;;;;;;;;;;;;;5052706;28;19925;-83
2022/05/12 13:23:49;;;;;;;;;;;;;;;;;;5053219;28;19920;-80
2022/05/12 13:26:15;;;;;;;;;;;;;;;;;;5053382;28;19921;-78
2022/05/12 13:28:41;;;;;;;;;;;;;;;;;;5036325;28;19931;-81
2022/05/12 13:31:07;;;;;;;;;;;;;;;;;;5053119;28;20031;-82
2022/05/12 13:33:33;;;;;;;;;;;;;;;;;;5053210;28;19928;-78
2022/05/12 13:35:59;;;;;;;;;;;;;;;;;;5037582;28;19924;-79
2022/05/12 13:38:25;;;;;;;;;;;;;;;;;;5058590;28;19920;-80
2022/05/12 13:40:51;;;;;;;;;;;;;;;;;;5057225;28;19974;-82
2022/05/12 13:43:17;;;;;;;;;;;;;;;;;;5037334;28;20423;-81
2022/05/12 13:45:44;;;;;;;;;;;;;;;;;;5055202;28;20011;-78
2022/05/12 13:48:10;;;;;;;;;;;;;;;;;;5053910;28;19928;-78
2022/05/12 13:50:36;;;;;;;;;;;;;;;;;;5035880;28;20389;-79
2022/05/12 13:53:02;;;;;;;;;;;;;;;;;;5052634;28;19975;-73
2022/05/12 13:55:28;;;;;;;;;;;;;;;;;;5052637;28;20011;-72
2022/05/12 13:57:54;;;;;;;;;;;;;;;;;;5035617;28;19921;-78
2022/05/12 14:00:20;;;;;;;;;;;;;;;;;;5053008;28;20422;-77
2022/05/12 14:02:46;;;;;;;;;;;;;;;;;;5052740;28;20272;-78
2022/05/12 14:05:12;;;;;;;;;;;;;;;;;;5052886;28;19925;-81
2022/05/12 14:07:38;;;;;;;;;;;;;;;;;;5053108;28;19921;-79
2022/05/12 14:10:04;;;;;;;;;;;;;;;;;;5051814;28;19974;-74
2022/05/12 14:12:30;;;;;;;;;;;;;;;;;;5053025;28;20303;-79
2022/05/12 14:20:25;;;;;;;;;;;;;;;;;;5052698;28;19927;-82
2022/05/12 14:22:51;;;;;;;;;;;;;;;;;;5034734;28;19921;-79
2022/05/12 14:25:17;;;;;;;;;;;;;;;;;;5052688;28;19921;-77
2022/05/12 14:27:43;;;;;;;;;;;;;;;;;;5055258;28;19944;-77
2022/05/12 14:30:09;;;;;;;;;;;;;;;;;;5056470;28;20364;-77
2022/05/12 14:32:35;;;;;;;;;;;;;;;;;;5038477;28;20276;-79
2022/05/12 14:35:01;;;;;;;;;;;;;;;;;;5056417;28;19921;-77
2022/05/12 14:37:28;;;;;;;;;;;;;;;;;;5057208;28;20007;-80
2022/05/12 14:39:54;;;;;;;;;;;;;;;;;;5055599;28;20371;-72
2022/05/12 14:42:20;;;;;;;;;;;;;;;;;;5054172;28;19921;-75
2022/05/12 14:44:46;;;;;;;;;;;;;;;;;;5055912;28;19920;-76
2022/05/12 14:47:12;;;;;;;;;;;;;;;;;;5056465;28;19982;-70
2022/05/12 14:49:38;;;;;;;;;;;;;;;;;;5055447;28;20361;-75
2022/05/12 14:52:04;;;;;;;;;;;;;;;;;;5038461;28;20011;-72
2022/05/12 14:54:30;;;;;;;;;;;;;;;;;;5055788;28;19943;-72
2022/05/12 14:56:56;;;;;;;;;;;;;;;;;;5054247;28;19968;-73
2022/05/12 14:59:22;;;;;;;;;;;;;;;;;;5055589;28;19931;-75
2022/05/12 15:01:48;;;;;;;;;;;;;;;;;;5054258;28;19924;-72
2022/05/12 15:04:14;;;;;;;;;;;;;;;;;;5038677;28;19928;-75
2022/05/12 15:06:40;;;;;;;;;;;;;;;;;;5055276;28;19920;-73
2022/05/12 15:09:06;;;;;;;;;;;;;;;;;;5055479;28;19921;-76
2022/05/12 15:11:32;;;;;;;;;;;;;;;;;;5055762;28;19924;-74
2022/05/12 15:13:58;;;;;;;;;;;;;;;;;;5055351;28;20375;-77
2022/05/12 15:16:24;;;;;;;;;;;;;;;;;;5037720;28;19920;-74
2022/05/12 15:18:53;;;;;;;;;;;;;;;;;;5053951;28;20053;-77
2022/05/12 15:21:19;;;;;;;;;;;;;;;;;;5058725;28;19920;-74
2022/05/12 15:23:45;;;;;;;;;;;;;;;;;;5063221;28;19921;-74
2022/05/12 15:26:11;;;;;;;;;;;;;;;;;;5055469;28;19990;-64
2022/05/12 15:28:37;;;;;;;;;;;;;;;;;;5054117;28;19924;-66
2022/05/12 15:31:04;;;;;;;;;;;;;;;;;;5052695;28;19927;-64
2022/05/12 15:33:30;;;;;;;;;;;;;;;;;;5054292;28;19959;-64
2022/05/12 15:35:57;;;;;;;;;;;;;;;;;;5054400;28;19921;-65
2022/05/12 15:38:23;;;;;;;;;;;;;;;;;;5053022;28;20372;-66
2022/05/12 15:40:49;;;;;;;;;;;;;;;;;;5032398;28;20046;-65